sensor_id;sensor_type;location;lat;lon;timestamp;pressure;altitude;pressure_sealevel;temperature;humidity
74678;BME280;63207;56.328;43.994;2022-12-07T00:03:44;102533.53;;;19.35;34.11
74678;BME280;63207;56.328;43.994;2022-12-07T00:06:11;102533.53;;;19.35;33.96
74678;BME280;63207;56.328;43.994;2022-12-07T00:08:38;102534.38;;;19.35;34.13
74678;BME280;63207;56.328;43.994;2022-12-07T00:11:13;102525.66;;;19.35;34.07
74678;BME280;63207;56.328;43.994;2022-12-07T00:13:40;102521.34;;;19.34;34.00
74678;BME280;63207;56.328;43.994;2022-12-07T00:16:11;102526.53;;;19.35;33.96
74678;BME280;63207;56.328;43.994;2022-12-07T00:18:38;102517.78;;;19.35;33.98
74678;BME280;63207;56.328;43.994;2022-12-07T00:21:09;102518.66;;;19.35;33.85
74678;BME280;63207;56.328;43.994;2022-12-07T00:23:36;102520.41;;;19.35;33.86
74678;BME280;63207;56.328;43.994;2022-12-07T00:28:34;102520.41;;;19.35;33.97
74678;BME280;63207;56.328;43.994;2022-12-07T00:31:05;102517.78;;;19.35;33.84
74678;BME280;63207;56.328;43.994;2022-12-07T00:33:33;102523.03;;;19.35;33.93
74678;BME280;63207;56.328;43.994;2022-12-07T00:35:59;102516.84;;;19.36;33.80
74678;BME280;63207;56.328;43.994;2022-12-07T00:38:31;102516.03;;;19.35;34.01
74678;BME280;63207;56.328;43.994;2022-12-07T00:41:00;102516.84;;;19.36;33.94
74678;BME280;63207;56.328;43.994;2022-12-07T00:43:27;102515.06;;;19.36;34.21
74678;BME280;63207;56.328;43.994;2022-12-07T00:45:54;102515.91;;;19.37;34.02
74678;BME280;63207;56.328;43.994;2022-12-07T00:48:20;102516.75;;;19.37;33.87
74678;BME280;63207;56.328;43.994;2022-12-07T00:50:46;102516.75;;;19.37;34.07
74678;BME280;63207;56.328;43.994;2022-12-07T00:53:13;102512.53;;;19.35;33.94
74678;BME280;63207;56.328;43.994;2022-12-07T00:55:39;102523.78;;;19.37;33.92
74678;BME280;63207;56.328;43.994;2022-12-07T00:58:23;102517.69;;;19.36;33.97
74678;BME280;63207;56.328;43.994;2022-12-07T01:00:49;102519.47;;;19.36;33.73
74678;BME280;63207;56.328;43.994;2022-12-07T01:03:16;102520.25;;;19.38;33.91
74678;BME280;63207;56.328;43.994;2022-12-07T01:05:53;102521.16;;;19.37;33.72
74678;BME280;63207;56.328;43.994;2022-12-07T01:08:20;102520.31;;;19.36;33.79
74678;BME280;63207;56.328;43.994;2022-12-07T01:10:46;102514.22;;;19.36;34.05
74678;BME280;63207;56.328;43.994;2022-12-07T01:13:13;102508.88;;;19.37;34.04
74678;BME280;63207;56.328;43.994;2022-12-07T01:15:43;102510.66;;;19.37;33.93
74678;BME280;63207;56.328;43.994;2022-12-07T01:18:09;102517.63;;;19.38;33.92
74678;BME280;63207;56.328;43.994;2022-12-07T01:20:35;102517.69;;;19.36;33.74
74678;BME280;63207;56.328;43.994;2022-12-07T01:23:01;102519.38;;;19.37;33.95
74678;BME280;63207;56.328;43.994;2022-12-07T01:25:28;102507.13;;;19.38;34.04
74678;BME280;63207;56.328;43.994;2022-12-07T01:27:53;102514.22;;;19.36;33.80
74678;BME280;63207;56.328;43.994;2022-12-07T01:30:19;102521.06;;;19.39;33.76
74678;BME280;63207;56.328;43.994;2022-12-07T01:32:45;102513.28;;;19.37;33.87
74678;BME280;63207;56.328;43.994;2022-12-07T01:35:11;102521.06;;;19.39;33.91
74678;BME280;63207;56.328;43.994;2022-12-07T01:37:38;102515.00;;;19.38;33.95
74678;BME280;63207;56.328;43.994;2022-12-07T01:40:06;102508.78;;;19.39;33.96
74678;BME280;63207;56.328;43.994;2022-12-07T01:42:33;102505.34;;;19.39;33.85
74678;BME280;63207;56.328;43.994;2022-12-07T01:47:47;102506.25;;;19.37;33.87
74678;BME280;63207;56.328;43.994;2022-12-07T01:50:17;102513.28;;;19.37;34.03
74678;BME280;63207;56.328;43.994;2022-12-07T01:52:45;102519.28;;;19.39;34.05
74678;BME280;63207;56.328;43.994;2022-12-07T01:55:15;102513.28;;;19.37;33.93
74678;BME280;63207;56.328;43.994;2022-12-07T01:57:47;102510.56;;;19.39;33.94
74678;BME280;63207;56.328;43.994;2022-12-07T02:00:14;102514.13;;;19.37;33.86
74678;BME280;63207;56.328;43.994;2022-12-07T02:02:48;102517.50;;;19.40;33.79
74678;BME280;63207;56.328;43.994;2022-12-07T02:05:17;102506.16;;;19.39;34.03
74678;BME280;63207;56.328;43.994;2022-12-07T02:07:45;102518.44;;;19.39;33.98
74678;BME280;63207;56.328;43.994;2022-12-07T02:10:16;102504.38;;;19.40;33.92
74678;BME280;63207;56.328;43.994;2022-12-07T02:12:44;102517.50;;;19.40;33.90
74678;BME280;63207;56.328;43.994;2022-12-07T02:24:18;102510.47;;;19.40;33.83
74678;BME280;63207;56.328;43.994;2022-12-07T02:27:28;102511.41;;;19.39;33.84
74678;BME280;63207;56.328;43.994;2022-12-07T02:32:58;102521.06;;;19.39;33.84
74678;BME280;63207;56.328;43.994;2022-12-07T02:38:25;102517.50;;;19.40;33.86
74678;BME280;63207;56.328;43.994;2022-12-07T02:41:17;102507.97;;;19.39;33.83
74678;BME280;63207;56.328;43.994;2022-12-07T02:43:53;102521.06;;;19.39;33.67
74678;BME280;63207;56.328;43.994;2022-12-07T02:46:33;102517.63;;;19.38;33.91
74678;BME280;63207;56.328;43.994;2022-12-07T02:49:00;102517.63;;;19.38;34.04
74678;BME280;63207;56.328;43.994;2022-12-07T02:51:30;102522.75;;;19.40;33.95
74678;BME280;63207;56.328;43.994;2022-12-07T02:53:56;102520.13;;;19.40;33.97
74678;BME280;63207;56.328;43.994;2022-12-07T02:56:39;102519.28;;;19.39;33.84
74678;BME280;63207;56.328;43.994;2022-12-07T03:04:50;102520.97;;;19.40;33.75
74678;BME280;63207;56.328;43.994;2022-12-07T03:07:38;102529.72;;;19.41;33.85
74678;BME280;63207;56.328;43.994;2022-12-07T03:15:35;102535.88;;;19.40;33.64
74678;BME280;63207;56.328;43.994;2022-12-07T03:18:05;102537.59;;;19.41;33.88
74678;BME280;63207;56.328;43.994;2022-12-07T03:20:32;102540.28;;;19.39;33.70
74678;BME280;63207;56.328;43.994;2022-12-07T03:23:04;102535.78;;;19.41;33.83
74678;BME280;63207;56.328;43.994;2022-12-07T03:25:30;102535.88;;;19.40;33.76
74678;BME280;63207;56.328;43.994;2022-12-07T03:28:02;102532.34;;;19.41;33.71
74678;BME280;63207;56.328;43.994;2022-12-07T03:30:46;102536.63;;;19.42;33.90
74678;BME280;63207;56.328;43.994;2022-12-07T03:33:17;102534.00;;;19.42;34.05
74678;BME280;63207;56.328;43.994;2022-12-07T03:36:01;102535.88;;;19.40;33.77
74678;BME280;63207;56.328;43.994;2022-12-07T03:38:40;102547.13;;;19.42;33.85
74678;BME280;63207;56.328;43.994;2022-12-07T03:43:34;102543.66;;;19.41;33.79
74678;BME280;63207;56.328;43.994;2022-12-07T03:46:21;102543.66;;;19.41;33.84
74678;BME280;63207;56.328;43.994;2022-12-07T03:48:59;102554.06;;;19.43;33.97
74678;BME280;63207;56.328;43.994;2022-12-07T03:56:45;102551.63;;;19.40;33.82
74678;BME280;63207;56.328;43.994;2022-12-07T03:59:13;102554.25;;;19.40;33.85
74678;BME280;63207;56.328;43.994;2022-12-07T04:01:44;102556.88;;;19.40;33.83
74678;BME280;63207;56.328;43.994;2022-12-07T04:04:11;102548.09;;;19.41;34.04
74678;BME280;63207;56.328;43.994;2022-12-07T04:06:55;102549.75;;;19.42;33.81
74678;BME280;63207;56.328;43.994;2022-12-07T04:09:21;102552.38;;;19.42;33.96
74678;BME280;63207;56.328;43.994;2022-12-07T04:11:47;102559.41;;;19.41;33.84
74678;BME280;63207;56.328;43.994;2022-12-07T04:14:13;102561.09;;;19.42;33.88
74678;BME280;63207;56.328;43.994;2022-12-07T04:16:51;102561.94;;;19.43;33.98
74678;BME280;63207;56.328;43.994;2022-12-07T04:19:19;102557.63;;;19.42;33.90
74678;BME280;63207;56.328;43.994;2022-12-07T04:21:46;102564.56;;;19.43;34.00
74678;BME280;63207;56.328;43.994;2022-12-07T04:24:13;102560.16;;;19.43;33.97
74678;BME280;63207;56.328;43.994;2022-12-07T04:26:40;102551.44;;;19.43;33.90
74678;BME280;63207;56.328;43.994;2022-12-07T04:29:06;102555.84;;;19.42;34.13
74678;BME280;63207;56.328;43.994;2022-12-07T04:31:32;102560.16;;;19.43;34.00
74678;BME280;63207;56.328;43.994;2022-12-07T04:33:57;102561.00;;;19.44;33.87
74678;BME280;63207;56.328;43.994;2022-12-07T04:36:23;102561.94;;;19.43;34.05
74678;BME280;63207;56.328;43.994;2022-12-07T04:38:49;102555.75;;;19.44;33.88
74678;BME280;63207;56.328;43.994;2022-12-07T04:41:15;102553.97;;;19.44;33.90
74678;BME280;63207;56.328;43.994;2022-12-07T04:43:40;102561.00;;;19.44;33.91
74678;BME280;63207;56.328;43.994;2022-12-07T04:46:06;102560.06;;;19.45;33.80
74678;BME280;63207;56.328;43.994;2022-12-07T04:48:32;102561.00;;;19.44;33.83
74678;BME280;63207;56.328;43.994;2022-12-07T04:50:58;102561.84;;;19.44;33.86
74678;BME280;63207;56.328;43.994;2022-12-07T04:53:24;102558.38;;;19.44;33.83
74678;BME280;63207;56.328;43.994;2022-12-07T04:55:50;102562.69;;;19.45;33.88
74678;BME280;63207;56.328;43.994;2022-12-07T04:58:15;102560.94;;;19.45;33.70
74678;BME280;63207;56.328;43.994;2022-12-07T05:00:41;102568.81;;;19.45;33.72
74678;BME280;63207;56.328;43.994;2022-12-07T05:03:07;102570.56;;;19.45;33.89
74678;BME280;63207;56.328;43.994;2022-12-07T05:05:33;102565.41;;;19.43;33.69
74678;BME280;63207;56.328;43.994;2022-12-07T05:07:59;102574.97;;;19.44;33.83
74678;BME280;63207;56.328;43.994;2022-12-07T05:10:24;102577.59;;;19.44;33.68
74678;BME280;63207;56.328;43.994;2022-12-07T05:12:50;102569.72;;;19.44;33.65
74678;BME280;63207;56.328;43.994;2022-12-07T05:15:16;102578.44;;;19.45;33.83
74678;BME280;63207;56.328;43.994;2022-12-07T05:17:42;102574.91;;;19.46;33.79
74678;BME280;63207;56.328;43.994;2022-12-07T05:20:08;102570.56;;;19.45;33.95
74678;BME280;63207;56.328;43.994;2022-12-07T05:22:35;102564.47;;;19.44;33.91
74678;BME280;63207;56.328;43.994;2022-12-07T05:25:01;102569.72;;;19.44;33.86
74678;BME280;63207;56.328;43.994;2022-12-07T05:27:29;102572.28;;;19.46;33.94
74678;BME280;63207;56.328;43.994;2022-12-07T05:29:55;102566.19;;;19.45;33.99
74678;BME280;63207;56.328;43.994;2022-12-07T05:32:20;102563.56;;;19.45;33.90
74678;BME280;63207;56.328;43.994;2022-12-07T05:34:46;102568.81;;;19.45;33.98
74678;BME280;63207;56.328;43.994;2022-12-07T05:37:12;102567.94;;;19.45;33.85
74678;BME280;63207;56.328;43.994;2022-12-07T05:39:38;102565.31;;;19.45;33.64
74678;BME280;63207;56.328;43.994;2022-12-07T05:42:06;102570.56;;;19.45;33.82
74678;BME280;63207;56.328;43.994;2022-12-07T05:44:45;102567.03;;;19.46;33.86
74678;BME280;63207;56.328;43.994;2022-12-07T05:47:12;102567.03;;;19.46;33.82
74678;BME280;63207;56.328;43.994;2022-12-07T05:49:38;102569.66;;;19.46;33.78
74678;BME280;63207;56.328;43.994;2022-12-07T05:52:05;102566.19;;;19.45;33.74
74678;BME280;63207;56.328;43.994;2022-12-07T05:54:30;102559.97;;;19.46;33.73
74678;BME280;63207;56.328;43.994;2022-12-07T05:56:56;102567.03;;;19.46;33.73
74678;BME280;63207;56.328;43.994;2022-12-07T05:59:23;102565.31;;;19.45;33.64
74678;BME280;63207;56.328;43.994;2022-12-07T06:01:56;102563.44;;;19.47;33.71
74678;BME280;63207;56.328;43.994;2022-12-07T06:04:23;102561.66;;;19.47;33.76
74678;BME280;63207;56.328;43.994;2022-12-07T06:06:50;102557.44;;;19.45;33.72
74678;BME280;63207;56.328;43.994;2022-12-07T06:09:16;102558.19;;;19.47;33.84
74678;BME280;63207;56.328;43.994;2022-12-07T06:11:44;102557.28;;;19.48;33.85
74678;BME280;63207;56.328;43.994;2022-12-07T06:14:28;102553.91;;;19.46;33.75
74678;BME280;63207;56.328;43.994;2022-12-07T06:17:13;102559.16;;;19.46;33.79
74678;BME280;63207;56.328;43.994;2022-12-07T06:19:39;102562.59;;;19.46;33.84
74678;BME280;63207;56.328;43.994;2022-12-07T06:22:06;102568.69;;;19.47;33.75
74678;BME280;63207;56.328;43.994;2022-12-07T06:24:33;102563.44;;;19.47;33.97
74678;BME280;63207;56.328;43.994;2022-12-07T06:26:59;102573.09;;;19.46;33.96
74678;BME280;63207;56.328;43.994;2022-12-07T06:29:25;102569.53;;;19.47;33.69
74678;BME280;63207;56.328;43.994;2022-12-07T06:31:51;102573.03;;;19.48;33.65
74678;BME280;63207;56.328;43.994;2022-12-07T06:34:19;102571.31;;;19.47;33.87
74678;BME280;63207;56.328;43.994;2022-12-07T06:36:46;102569.53;;;19.47;33.76
74678;BME280;63207;56.328;43.994;2022-12-07T06:39:17;102577.31;;;19.49;33.65
74678;BME280;63207;56.328;43.994;2022-12-07T06:41:44;102569.44;;;19.49;33.66
74678;BME280;63207;56.328;43.994;2022-12-07T06:44:10;102568.63;;;19.48;33.76
74678;BME280;63207;56.328;43.994;2022-12-07T06:46:36;102577.31;;;19.49;33.73
74678;BME280;63207;56.328;43.994;2022-12-07T06:49:03;102567.66;;;19.49;33.88
74678;BME280;63207;56.328;43.994;2022-12-07T06:51:30;102572.06;;;19.49;33.79
74678;BME280;63207;56.328;43.994;2022-12-07T06:53:56;102563.25;;;19.50;33.82
74678;BME280;63207;56.328;43.994;2022-12-07T06:56:22;102568.50;;;19.50;33.82
74678;BME280;63207;56.328;43.994;2022-12-07T06:58:48;102564.97;;;19.51;33.74
74678;BME280;63207;56.328;43.994;2022-12-07T07:01:16;102578.09;;;19.51;33.65
74678;BME280;63207;56.328;43.994;2022-12-07T07:04:01;102570.28;;;19.49;33.67
74678;BME280;63207;56.328;43.994;2022-12-07T07:06:27;102572.00;;;19.50;33.68
74678;BME280;63207;56.328;43.994;2022-12-07T07:08:53;102573.66;;;19.51;33.70
74678;BME280;63207;56.328;43.994;2022-12-07T07:11:19;102583.34;;;19.51;33.72
74678;BME280;63207;56.328;43.994;2022-12-07T07:13:45;102581.53;;;19.51;33.76
74678;BME280;63207;56.328;43.994;2022-12-07T07:16:11;102589.41;;;19.51;33.67
74678;BME280;63207;56.328;43.994;2022-12-07T07:18:37;102587.63;;;19.52;33.65
74678;BME280;63207;56.328;43.994;2022-12-07T07:21:03;102591.09;;;19.52;33.82
74678;BME280;63207;56.328;43.994;2022-12-07T07:23:29;102597.22;;;19.53;33.72
74678;BME280;63207;56.328;43.994;2022-12-07T07:25:57;102593.72;;;19.52;33.62
74678;BME280;63207;56.328;43.994;2022-12-07T07:28:23;102589.34;;;19.53;33.78
74678;BME280;63207;56.328;43.994;2022-12-07T07:30:48;102593.72;;;19.52;33.75
74678;BME280;63207;56.328;43.994;2022-12-07T07:33:14;102594.59;;;19.53;33.60
74678;BME280;63207;56.328;43.994;2022-12-07T07:35:40;102594.59;;;19.53;33.69
74678;BME280;63207;56.328;43.994;2022-12-07T07:38:07;102599.84;;;19.53;33.65
74678;BME280;63207;56.328;43.994;2022-12-07T07:40:34;102588.47;;;19.52;33.63
74678;BME280;63207;56.328;43.994;2022-12-07T07:43:00;102592.81;;;19.53;33.75
74678;BME280;63207;56.328;43.994;2022-12-07T07:45:27;102594.59;;;19.53;33.80
74678;BME280;63207;56.328;43.994;2022-12-07T07:47:54;102591.97;;;19.53;33.73
74678;BME280;63207;56.328;43.994;2022-12-07T07:50:20;102594.41;;;19.56;33.70
74678;BME280;63207;56.328;43.994;2022-12-07T07:52:46;102591.03;;;19.54;33.52
74678;BME280;63207;56.328;43.994;2022-12-07T07:55:13;102587.44;;;19.55;33.67
74678;BME280;63207;56.328;43.994;2022-12-07T07:57:40;102593.56;;;19.55;33.55
74678;BME280;63207;56.328;43.994;2022-12-07T08:00:08;102599.66;;;19.56;33.70
74678;BME280;63207;56.328;43.994;2022-12-07T08:02:39;102591.78;;;19.56;33.66
74678;BME280;63207;56.328;43.994;2022-12-07T08:05:24;102592.69;;;19.55;33.71
74678;BME280;63207;56.328;43.994;2022-12-07T08:07:50;102588.31;;;19.55;33.61
74678;BME280;63207;56.328;43.994;2022-12-07T08:10:15;102594.41;;;19.56;33.80
74678;BME280;63207;56.328;43.994;2022-12-07T08:12:42;102595.25;;;19.56;33.74
74678;BME280;63207;56.328;43.994;2022-12-07T08:15:28;102588.31;;;19.55;33.80
74678;BME280;63207;56.328;43.994;2022-12-07T08:17:55;102594.41;;;19.56;33.69
74678;BME280;63207;56.328;43.994;2022-12-07T08:20:21;102588.19;;;19.57;33.80
74678;BME280;63207;56.328;43.994;2022-12-07T08:23:06;102589.16;;;19.56;33.75
74678;BME280;63207;56.328;43.994;2022-12-07T08:25:33;102597.88;;;19.56;33.97
74678;BME280;63207;56.328;43.994;2022-12-07T08:28:00;102584.75;;;19.56;33.82
74678;BME280;63207;56.328;43.994;2022-12-07T08:30:27;102592.53;;;19.58;33.74
74678;BME280;63207;56.328;43.994;2022-12-07T08:32:53;102590.81;;;19.57;33.73
74678;BME280;63207;56.328;43.994;2022-12-07T08:35:19;102584.66;;;19.58;33.73
74678;BME280;63207;56.328;43.994;2022-12-07T08:37:44;102587.28;;;19.58;33.69
74678;BME280;63207;56.328;43.994;2022-12-07T08:40:11;102588.13;;;19.58;33.96
74678;BME280;63207;56.328;43.994;2022-12-07T08:42:43;102588.97;;;19.59;33.79
74678;BME280;63207;56.328;43.994;2022-12-07T08:45:14;102589.78;;;19.59;33.76
74678;BME280;63207;56.328;43.994;2022-12-07T08:48:02;102586.41;;;19.57;33.78
74678;BME280;63207;56.328;43.994;2022-12-07T08:50:48;102586.34;;;19.59;33.73
74678;BME280;63207;56.328;43.994;2022-12-07T08:53:14;102581.09;;;19.59;33.59
74678;BME280;63207;56.328;43.994;2022-12-07T08:55:40;102578.47;;;19.59;33.87
74678;BME280;63207;56.328;43.994;2022-12-07T08:58:05;102575.84;;;19.59;33.92
74678;BME280;63207;56.328;43.994;2022-12-07T09:00:31;102588.00;;;19.60;33.75
74678;BME280;63207;56.328;43.994;2022-12-07T09:02:57;102575.75;;;19.61;33.69
74678;BME280;63207;56.328;43.994;2022-12-07T09:05:23;102581.00;;;19.61;33.78
74678;BME280;63207;56.328;43.994;2022-12-07T09:07:51;102578.28;;;19.62;33.60
74678;BME280;63207;56.328;43.994;2022-12-07T09:10:20;102581.84;;;19.61;33.66
74678;BME280;63207;56.328;43.994;2022-12-07T09:12:46;102575.75;;;19.61;33.71
74678;BME280;63207;56.328;43.994;2022-12-07T09:15:11;102585.31;;;19.62;33.66
74678;BME280;63207;56.328;43.994;2022-12-07T09:17:37;102579.13;;;19.63;33.70
74678;BME280;63207;56.328;43.994;2022-12-07T09:20:04;102584.47;;;19.61;33.77
74678;BME280;63207;56.328;43.994;2022-12-07T09:22:31;102587.94;;;19.62;33.94
74678;BME280;63207;56.328;43.994;2022-12-07T09:24:58;102587.94;;;19.62;33.96
74678;BME280;63207;56.328;43.994;2022-12-07T09:27:24;102582.59;;;19.63;33.71
74678;BME280;63207;56.328;43.994;2022-12-07T09:29:50;102587.84;;;19.63;33.79
74678;BME280;63207;56.328;43.994;2022-12-07T09:32:16;102582.69;;;19.62;33.77
74678;BME280;63207;56.328;43.994;2022-12-07T09:34:42;102587.84;;;19.63;33.79
74678;BME280;63207;56.328;43.994;2022-12-07T09:37:08;102587.00;;;19.63;33.69
74678;BME280;63207;56.328;43.994;2022-12-07T09:39:34;102587.00;;;19.63;33.76
74678;BME280;63207;56.328;43.994;2022-12-07T09:42:03;102581.66;;;19.64;33.66
74678;BME280;63207;56.328;43.994;2022-12-07T09:44:32;102586.91;;;19.64;33.85
74678;BME280;63207;56.328;43.994;2022-12-07T09:46:58;102590.47;;;19.63;33.90
74678;BME280;63207;56.328;43.994;2022-12-07T09:49:28;102579.03;;;19.64;33.74
74678;BME280;63207;56.328;43.994;2022-12-07T09:52:16;102591.22;;;19.65;33.71
74678;BME280;63207;56.328;43.994;2022-12-07T09:54:46;102583.34;;;19.65;33.79
74678;BME280;63207;56.328;43.994;2022-12-07T09:57:32;102584.28;;;19.64;33.61
74678;BME280;63207;56.328;43.994;2022-12-07T10:00:03;102583.34;;;19.65;33.79
74678;BME280;63207;56.328;43.994;2022-12-07T10:02:37;102576.31;;;19.66;33.83
74678;BME280;63207;56.328;43.994;2022-12-07T10:05:29;102574.63;;;19.65;33.71
74678;BME280;63207;56.328;43.994;2022-12-07T10:07:57;102574.63;;;19.65;33.77
74678;BME280;63207;56.328;43.994;2022-12-07T10:10:34;102573.78;;;19.64;33.74
74678;BME280;63207;56.328;43.994;2022-12-07T10:13:06;102570.22;;;19.65;33.82
74678;BME280;63207;56.328;43.994;2022-12-07T10:15:51;102572.84;;;19.65;33.63
74678;BME280;63207;56.328;43.994;2022-12-07T10:20:47;102578.88;;;19.67;33.91
74678;BME280;63207;56.328;43.994;2022-12-07T10:23:17;102571.00;;;19.67;33.79
74678;BME280;63207;56.328;43.994;2022-12-07T10:25:44;102570.13;;;19.67;33.75
74678;BME280;63207;56.328;43.994;2022-12-07T10:30:57;102564.88;;;19.67;33.90
74678;BME280;63207;56.328;43.994;2022-12-07T10:33:40;102574.53;;;19.66;33.82
74678;BME280;63207;56.328;43.994;2022-12-07T10:36:26;102572.75;;;19.67;33.85
74678;BME280;63207;56.328;43.994;2022-12-07T10:39:00;102557.84;;;19.67;33.85
74678;BME280;63207;56.328;43.994;2022-12-07T10:41:26;102568.34;;;19.67;33.83
74678;BME280;63207;56.328;43.994;2022-12-07T10:43:55;102568.44;;;19.66;33.84
74678;BME280;63207;56.328;43.994;2022-12-07T10:49:08;102568.28;;;19.69;33.83
74678;BME280;63207;56.328;43.994;2022-12-07T10:51:45;102570.06;;;19.68;33.86
74678;BME280;63207;56.328;43.994;2022-12-07T10:54:52;102564.81;;;19.68;33.76
74678;BME280;63207;56.328;43.994;2022-12-07T11:00:24;102568.28;;;19.69;33.80
74678;BME280;63207;56.328;43.994;2022-12-07T11:08:44;102564.81;;;19.68;33.79
74678;BME280;63207;56.328;43.994;2022-12-07T11:11:27;102556.00;;;19.69;33.71
74678;BME280;63207;56.328;43.994;2022-12-07T11:17:20;102566.59;;;19.68;33.73
74678;BME280;63207;56.328;43.994;2022-12-07T11:38:47;102563.03;;;19.69;33.81
74678;BME280;63207;56.328;43.994;2022-12-07T11:41:20;102554.31;;;19.68;33.86
74678;BME280;63207;56.328;43.994;2022-12-07T11:46:20;102546.44;;;19.68;34.04
74678;BME280;63207;56.328;43.994;2022-12-07T11:49:19;102553.47;;;19.68;33.82
74678;BME280;63207;56.328;43.994;2022-12-07T11:51:49;102561.41;;;19.66;33.87
74678;BME280;63207;56.328;43.994;2022-12-07T11:54:23;102552.78;;;19.64;33.75
74678;BME280;63207;56.328;43.994;2022-12-07T11:56:51;102545.09;;;19.61;33.70
74678;BME280;63207;56.328;43.994;2022-12-07T11:59:25;102555.50;;;19.63;33.65
74678;BME280;63207;56.328;43.994;2022-12-07T12:04:30;102548.34;;;19.65;33.51
74678;BME280;63207;56.328;43.994;2022-12-07T12:06:58;102556.16;;;19.66;33.67
74678;BME280;63207;56.328;43.994;2022-12-07T12:20:58;102564.09;;;19.65;33.31
74678;BME280;63207;56.328;43.994;2022-12-07T12:23:43;102565.06;;;19.64;33.46
74678;BME280;63207;56.328;43.994;2022-12-07T12:26:20;102564.31;;;19.62;33.15
74678;BME280;63207;56.328;43.994;2022-12-07T12:31:40;102561.69;;;19.62;33.30
74678;BME280;63207;56.328;43.994;2022-12-07T12:34:30;102550.34;;;19.61;33.08
74678;BME280;63207;56.328;43.994;2022-12-07T12:36:56;102556.50;;;19.60;33.31
74678;BME280;63207;56.328;43.994;2022-12-07T12:39:23;102545.09;;;19.61;33.43
74678;BME280;63207;56.328;43.994;2022-12-07T12:47:00;102558.28;;;19.59;33.40
74678;BME280;63207;56.328;43.994;2022-12-07T12:49:42;102553.03;;;19.59;33.49
74678;BME280;63207;56.328;43.994;2022-12-07T12:54:36;102549.38;;;19.62;33.35
74678;BME280;63207;56.328;43.994;2022-12-07T12:57:24;102550.25;;;19.63;33.30
74678;BME280;63207;56.328;43.994;2022-12-07T13:23:54;102534.72;;;19.74;33.37
74678;BME280;63207;56.328;43.994;2022-12-07T13:29:16;102529.25;;;19.91;33.43
74678;BME280;63207;56.328;43.994;2022-12-07T13:37:01;102523.69;;;20.10;33.96
74678;BME280;63207;56.328;43.994;2022-12-07T13:39:28;102511.19;;;20.14;34.06
74678;BME280;63207;56.328;43.994;2022-12-07T13:41:56;102513.53;;;20.18;34.25
74678;BME280;63207;56.328;43.994;2022-12-07T13:44:24;102515.88;;;20.23;34.31
74678;BME280;63207;56.328;43.994;2022-12-07T13:49:30;102516.13;;;20.33;34.59
74678;BME280;63207;56.328;43.994;2022-12-07T13:52:33;102517.50;;;20.38;34.68
74678;BME280;63207;56.328;43.994;2022-12-07T13:57:34;102510.25;;;20.42;34.78
74678;BME280;63207;56.328;43.994;2022-12-07T14:00:03;102514.47;;;20.44;34.71
74678;BME280;63207;56.328;43.994;2022-12-07T14:02:34;102502.06;;;20.47;34.67
74678;BME280;63207;56.328;43.994;2022-12-07T14:05:14;102514.72;;;20.54;34.88
74678;BME280;63207;56.328;43.994;2022-12-07T14:11:02;102517.91;;;20.59;35.00
74678;BME280;63207;56.328;43.994;2022-12-07T14:13:36;102502.88;;;20.61;35.22
74678;BME280;63207;56.328;43.994;2022-12-07T14:16:29;102507.97;;;20.64;35.19
74678;BME280;63207;56.328;43.994;2022-12-07T14:18:58;102512.19;;;20.67;35.20
74678;BME280;63207;56.328;43.994;2022-12-07T14:21:27;102511.84;;;20.72;35.31
74678;BME280;63207;56.328;43.994;2022-12-07T14:24:09;102506.59;;;20.72;35.35
74678;BME280;63207;56.328;43.994;2022-12-07T14:26:38;102506.59;;;20.72;35.11
74678;BME280;63207;56.328;43.994;2022-12-07T14:31:54;102509.13;;;20.73;35.23
74678;BME280;63207;56.328;43.994;2022-12-07T14:34:21;102509.97;;;20.74;35.22
74678;BME280;63207;56.328;43.994;2022-12-07T14:36:47;102512.59;;;20.74;35.15
74678;BME280;63207;56.328;43.994;2022-12-07T14:39:13;102510.72;;;20.76;35.20
74678;BME280;63207;56.328;43.994;2022-12-07T14:41:38;102504.63;;;20.75;35.20
74678;BME280;63207;56.328;43.994;2022-12-07T14:44:20;102502.81;;;20.76;35.20
74678;BME280;63207;56.328;43.994;2022-12-07T14:46:47;102507.13;;;20.77;35.14
74678;BME280;63207;56.328;43.994;2022-12-07T14:49:13;102508.09;;;20.76;35.12
74678;BME280;63207;56.328;43.994;2022-12-07T14:51:58;102505.38;;;20.77;34.97
74678;BME280;63207;56.328;43.994;2022-12-07T14:54:26;102510.63;;;20.77;34.62
74678;BME280;63207;56.328;43.994;2022-12-07T14:56:54;102499.56;;;20.72;34.34
74678;BME280;63207;56.328;43.994;2022-12-07T14:59:20;102507.75;;;20.68;34.07
74678;BME280;63207;56.328;43.994;2022-12-07T15:01:46;102504.59;;;20.62;33.74
74678;BME280;63207;56.328;43.994;2022-12-07T15:04:12;102503.19;;;20.57;33.49
74678;BME280;63207;56.328;43.994;2022-12-07T15:06:39;102501.69;;;20.53;33.30
74678;BME280;63207;56.328;43.994;2022-12-07T15:09:05;102502.06;;;20.47;33.07
74678;BME280;63207;56.328;43.994;2022-12-07T15:11:31;102498.06;;;20.41;33.18
74678;BME280;63207;56.328;43.994;2022-12-07T15:13:57;102505.31;;;20.37;32.85
74678;BME280;63207;56.328;43.994;2022-12-07T15:16:39;102497.59;;;20.34;32.71
74678;BME280;63207;56.328;43.994;2022-12-07T15:19:24;102502.25;;;20.31;32.73
74678;BME280;63207;56.328;43.994;2022-12-07T15:21:52;102495.59;;;20.25;32.51
74678;BME280;63207;56.328;43.994;2022-12-07T15:24:19;102494.94;;;20.21;32.50
74678;BME280;63207;56.328;43.994;2022-12-07T15:26:45;102506.41;;;20.20;32.34